Grave, Netherlands
Current Conditions -  °F | °C
As of 9:55 AM on Wednesday 26 Nov 2014 (Local Time) from EHVK Reporting Station
Overcast Overcast  
Wind Chill: 32°   Ceiling: 10000
Heat Index: 39°   Visibility: 6mi
Dew Point: 36°   Wind: 12mph
Humidity: 87%   Direction: 100°E
Pressure: 29.97"   Gusts: NA
Location:  51.76°N, 5.74°E
Report Text: EHVK 260855Z AUTO 10010KT 9999 SCT095 OVC100 04/02 Q1015 BLU
Loading
Personal Weather Stations






























Interactive Weather Map New forecast layout! Learn more

10-Day Weather Forecast

Advertisements
Track Severe Weather on mobile